Hlavní strana
METAR-TAF:

METAR-TAF

Letiště :

Kostanay, Kazachstán

zeměpisná šířka: 53-12-23N, zeměpisná délka: 063-33-03E, výška: 182 m

Aktuální stav počasí

Zpráva byla vytvořena před 2 hodinami a 14 minutami, v 14:00 UTC
vítr z různých směrů 2 kt
Teplota 9°C
Vlhkost vzduchu 40%
Tlak 1027 hPa
Viditelnost 10 km a více
Žádná oblačnost pod 1500 m, nevyskytují se cumulonimby.

METAR: UAUU 241400Z VRB01MPS CAVOK 09/M04 Q1027 R15/CLRD70 NOSIG RMK QFE754/1005

Čas: 22:14 (16:14 UTC)

Předpověď počasí

Zpráva byla vytvořena před 5 hodinami a 13 minutami, v 11:01 UTC
Předpověď platná od 24 v 12 UTC do 24 v 21 UTC
Jihovýchodní vítr 6 kt s nárazy do 16 kt
Viditelnost 10 km a více
Žádná oblačnost pod 1500 m, nevyskytují se cumulonimby.
Dočasný
od 24 v 12 UTC do 24 v 15 UTC
vítr z různých směrů 4 kt

TAF: UAUU 241101Z 2412/2421 14003G08MPS CAVOK TEMPO 2412/2415 VRB02MPS

Stav a předpovědi počasí z více než 4 000 letišť (zprávy METAR a TAF).

Červené a žluté tečky na mapě představují dostupné meteorologické stanice.

Když kurzor umístíte na tečku, zobrazí se název stanice.

Pak kliknutím zobrazíte stav a předpověď počasí.

Chcete-li změnit mapu, kliknutím na zelené tlačítko se znaménkem +mapu přiblížíte, kliknutím na zelené tlačítko se znaménkem – mapu oddálíte a kliknutím na zelené šipky přejdete na sousední mapy.


METAR-TAF: